Time;durP1;ratioP1;P1;durP2;ratioP2;P2;SDS_P1;SDS_P2;PMS_P1;PMS_P2;Temp;Humidity;BMP_temperature;BMP_pressure;BME280_temperature;BME280_humidity;BME280_pressure;Samples;Min_cycle;Max_cycle;Signal;HPM_P1;HPM_P2
2024/02/15 00:02:23;;;;;;;5.38;2.72;;;;;;;12.45;84.75;99655.03;4976780;28;20584;-53
2024/02/15 00:04:50;;;;;;;6.45;2.88;;;;;;;12.45;84.04;99644.63;4981963;28;20078;-48
2024/02/15 00:07:17;;;;;;;4.85;2.60;;;;;;;12.44;84.94;99611.75;4985382;28;20274;-46
2024/02/15 00:09:44;;;;;;;7.28;3.22;;;;;;;12.43;84.80;99594.47;4980460;28;20058;-48
2024/02/15 00:12:11;;;;;;;5.63;2.65;;;;;;;12.40;85.00;99589.31;4982396;28;20046;-48
2024/02/15 00:14:38;;;;;;;5.90;1.73;;;;;;;12.38;84.54;99575.50;4982924;28;20423;-51
2024/02/15 00:17:05;;;;;;;5.38;2.00;;;;;;;12.38;85.10;99580.69;4977155;28;20053;-51
2024/02/15 00:19:32;;;;;;;4.22;2.10;;;;;;;12.36;85.39;99578.13;4982899;28;20139;-49
2024/02/15 00:21:59;;;;;;;7.22;2.97;;;;;;;12.41;84.54;99583.25;4978390;28;20516;-54
2024/02/15 00:24:27;;;;;;;3.03;1.40;;;;;;;12.38;84.46;99589.34;4980152;28;20049;-49
2024/02/15 00:26:54;;;;;;;3.83;1.85;;;;;;;12.34;86.10;99575.53;4983939;28;20050;-53
2024/02/15 00:29:21;;;;;;;4.63;2.10;;;;;;;12.36;84.57;99582.47;4985218;28;20054;-49
2024/02/15 00:31:49;;;;;;;5.03;1.75;;;;;;;12.33;86.00;99573.84;4986539;28;20050;-50
2024/02/15 00:34:16;;;;;;;7.15;2.50;;;;;;;12.33;85.78;99578.19;4985093;28;20081;-52
2024/02/15 00:36:44;;;;;;;5.22;2.10;;;;;;;12.37;85.67;99579.00;4988132;28;20721;-49
2024/02/15 00:39:11;;;;;;;4.13;1.40;;;;;;;12.30;86.26;99573.06;4977824;28;20125;-51
2024/02/15 00:41:41;;;;;;;5.43;2.70;;;;;;;12.31;85.64;99570.44;4982486;28;20085;-52
2024/02/15 00:44:10;;;;;;;5.65;3.60;;;;;;;12.30;85.47;99566.09;4985024;28;20054;-49
2024/02/15 00:46:37;;;;;;;3.95;1.77;;;;;;;12.29;86.21;99551.41;4988734;28;20046;-49
2024/02/15 00:49:06;;;;;;;5.32;2.70;;;;;;;12.25;85.89;99548.88;4991364;28;20065;-51
2024/02/15 00:51:36;;;;;;;3.00;2.25;;;;;;;12.23;85.51;99550.69;4983008;28;20125;-47
2024/02/15 00:54:04;;;;;;;7.20;2.70;;;;;;;12.18;86.42;99558.53;4983442;28;20050;-47
2024/02/15 00:56:32;;;;;;;6.75;3.20;;;;;;;12.20;86.24;99578.38;4980040;28;20112;-46
2024/02/15 00:59:01;;;;;;;4.57;2.30;;;;;;;12.21;86.71;99567.16;4989558;28;20057;-49
2024/02/15 01:01:27;;;;;;;3.10;1.88;;;;;;;12.19;86.06;99581.00;4978307;28;20081;-48
2024/02/15 01:03:54;;;;;;;4.72;2.97;;;;;;;12.23;86.36;99582.69;4988466;28;20062;-46
2024/02/15 01:06:22;;;;;;;6.20;2.88;;;;;;;12.24;86.93;99568.81;4985216;28;20492;-47
2024/02/15 01:08:49;;;;;;;3.67;1.95;;;;;;;12.19;86.66;99581.00;4979838;28;20104;-50
2024/02/15 01:11:17;;;;;;;4.10;2.42;;;;;;;12.16;86.37;99591.47;4985973;28;20061;-51
2024/02/15 01:13:45;;;;;;;5.03;2.08;;;;;;;12.18;87.11;99593.16;4976614;28;20058;-48
2024/02/15 01:16:15;;;;;;;4.57;2.33;;;;;;;12.23;86.67;99593.09;4983193;28;20054;-47
2024/02/15 01:18:43;;;;;;;7.10;3.65;;;;;;;12.28;86.14;99591.25;4973081;28;20070;-48
2024/02/15 01:21:12;;;;;;;4.50;2.47;;;;;;;12.21;86.74;99600.91;4980869;28;20058;-48
2024/02/15 01:23:39;;;;;;;2.95;1.42;;;;;;;12.25;87.00;99575.72;4987436;28;20046;-48
2024/02/15 01:26:09;;;;;;;5.95;2.85;;;;;;;12.26;86.15;99572.22;4982912;28;20773;-50
2024/02/15 01:28:38;;;;;;;4.70;2.70;;;;;;;12.25;87.58;99567.06;4984916;28;20137;-46
2024/02/15 01:31:09;;;;;;;5.05;2.63;;;;;;;12.26;86.33;99561.84;4983451;28;20049;-49
2024/02/15 01:33:37;;;;;;;4.78;1.95;;;;;;;12.21;87.22;99569.75;4980327;28;20432;-47
2024/02/15 01:36:07;;;;;;;5.30;2.55;;;;;;;12.25;87.11;99562.75;4986205;28;20065;-45
2024/02/15 01:38:35;;;;;;;8.10;2.50;;;;;;;12.24;87.24;99562.75;4986246;28;20086;-48
2024/02/15 01:41:03;;;;;;;5.65;2.42;;;;;;;12.28;87.34;99564.41;4984602;28;20069;-45
2024/02/15 01:43:31;;;;;;;4.63;2.13;;;;;;;12.29;87.30;99567.00;4980359;28;20057;-48
2024/02/15 01:46:01;;;;;;;2.88;1.65;;;;;;;12.29;87.36;99569.59;4984433;28;20556;-50
2024/02/15 01:48:30;;;;;;;5.45;2.33;;;;;;;12.33;86.11;99573.00;4993899;28;20050;-46
2024/02/15 01:50:59;;;;;;;2.03;1.52;;;;;;;12.30;86.67;99573.06;4992717;28;20050;-46
2024/02/15 01:53:28;;;;;;;5.55;2.40;;;;;;;12.34;86.28;99570.34;4987031;28;20045;-48
2024/02/15 01:55:59;;;;;;;2.78;1.98;;;;;;;12.33;85.55;99573.84;4986723;28;20047;-47
2024/02/15 01:58:27;;;;;;;3.15;1.38;;;;;;;12.34;85.76;99565.16;4991225;28;20053;-49
2024/02/15 02:00:57;;;;;;;3.42;1.73;;;;;;;12.27;86.21;99558.38;4976798;28;20062;-50
2024/02/15 02:03:24;;;;;;;2.42;1.48;;;;;;;12.31;86.94;99544.47;4982128;28;20145;-49
2024/02/15 02:05:51;;;;;;;2.25;1.23;;;;;;;12.31;86.30;99539.28;4987501;28;20077;-47
2024/02/15 02:08:17;;;;;;;4.35;2.22;;;;;;;12.32;85.65;99543.56;4983118;28;20065;-47
2024/02/15 02:10:45;;;;;;;4.90;2.55;;;;;;;12.35;86.76;99540.06;4979622;28;20058;-49
2024/02/15 02:13:12;;;;;;;4.43;2.20;;;;;;;12.35;86.14;99547.84;4985751;28;20854;-51
2024/02/15 02:15:39;;;;;;;4.07;2.30;;;;;;;12.34;86.63;99554.78;4983714;28;20058;-46
2024/02/15 02:18:08;;;;;;;3.40;1.90;;;;;;;12.37;85.46;99566.00;4981029;28;20050;-47
2024/02/15 02:20:35;;;;;;;6.38;2.78;;;;;;;12.33;85.83;99545.28;4981814;28;20051;-45
2024/02/15 02:23:09;;;;;;;3.33;1.60;;;;;;;12.33;85.53;99542.69;4983955;28;20423;-52
2024/02/15 02:25:36;;;;;;;3.50;2.00;;;;;;;12.34;86.12;99535.75;4982072;28;20141;-48
2024/02/15 02:28:03;;;;;;;3.80;1.65;;;;;;;12.34;86.26;99539.19;4982920;28;20081;-49
2024/02/15 02:30:30;;;;;;;4.57;1.95;;;;;;;12.34;86.22;99549.59;4980225;28;20050;-47
2024/02/15 02:32:58;;;;;;;3.75;1.85;;;;;;;12.33;85.65;99547.03;4981377;28;20061;-48
2024/02/15 02:35:26;;;;;;;2.80;2.03;;;;;;;12.33;86.39;99553.06;4977170;28;20046;-47
2024/02/15 02:37:53;;;;;;;4.43;1.63;;;;;;;12.36;86.00;99540.94;4982341;28;20417;-47
2024/02/15 02:40:20;;;;;;;2.17;1.45;;;;;;;12.33;85.40;99534.88;4984228;28;20072;-51
2024/02/15 02:42:52;;;;;;;3.28;1.85;;;;;;;12.35;85.53;99537.47;4981382;28;20868;-49
2024/02/15 02:45:19;;;;;;;4.43;2.75;;;;;;;12.37;85.34;99527.06;4980004;28;20050;-51
2024/02/15 02:47:47;;;;;;;4.13;2.33;;;;;;;12.39;85.66;99525.28;4964814;28;20050;-49
2024/02/15 02:50:19;;;;;;;3.75;2.30;;;;;;;12.39;85.87;99515.75;4975288;28;20208;-50
2024/02/15 02:52:48;;;;;;;2.55;1.38;;;;;;;12.36;85.68;99504.56;4979466;28;20057;-51
2024/02/15 02:55:16;;;;;;;2.90;1.30;;;;;;;12.37;85.24;99506.28;4980017;28;20685;-48
2024/02/15 02:57:43;;;;;;;2.15;1.65;;;;;;;12.34;85.33;99508.03;4983361;28;20063;-49
2024/02/15 03:00:12;;;;;;;2.33;1.70;;;;;;;12.36;86.04;99515.78;4981089;28;20054;-45
2024/02/15 03:02:39;;;;;;;3.80;1.38;;;;;;;12.38;85.95;99502.78;4984905;28;20500;-50
2024/02/15 03:05:08;;;;;;;3.47;2.17;;;;;;;12.41;85.84;99515.72;4976024;28;20050;-48
2024/02/15 03:07:36;;;;;;;3.40;1.48;;;;;;;12.43;85.26;99516.56;4983421;28;20054;-47
2024/02/15 03:10:07;;;;;;;3.20;1.38;;;;;;;12.42;85.33;99514.81;4977008;28;20046;-51
2024/02/15 03:12:36;;;;;;;3.67;1.77;;;;;;;12.44;86.04;99513.06;4980120;28;20058;-48
2024/02/15 03:15:11;;;;;;;3.53;2.45;;;;;;;12.45;85.63;99514.78;4980074;28;20042;-49
2024/02/15 03:17:39;;;;;;;4.75;1.80;;;;;;;12.48;84.73;99514.72;4978324;28;20050;-49
2024/02/15 03:20:12;;;;;;;2.35;1.13;;;;;;;12.47;84.99;99507.81;4982128;28;20050;-51
2024/02/15 03:22:38;;;;;;;3.65;1.65;;;;;;;12.48;85.67;99509.53;4981629;28;20054;-49
2024/02/15 03:25:07;;;;;;;1.52;1.38;;;;;;;12.41;85.74;99502.72;4979414;28;20054;-48
2024/02/15 03:27:37;;;;;;;2.92;1.98;;;;;;;12.44;85.88;99492.28;4975520;28;20515;-47
2024/02/15 03:30:04;;;;;;;4.28;1.90;;;;;;;12.44;86.00;99476.72;4984230;28;20077;-48
2024/02/15 03:32:31;;;;;;;2.13;1.77;;;;;;;12.44;85.38;99484.50;4976391;28;20042;-45
2024/02/15 03:35:00;;;;;;;3.42;2.08;;;;;;;12.47;85.74;99507.81;4984950;28;20054;-46
2024/02/15 03:37:27;;;;;;;4.63;2.17;;;;;;;12.46;86.24;99499.16;4985125;28;20078;-49
2024/02/15 03:39:54;;;;;;;3.05;2.40;;;;;;;12.47;85.41;99492.25;4984312;28;20057;-51
2024/02/15 03:42:21;;;;;;;2.42;1.88;;;;;;;12.48;86.11;99483.56;4983531;28;20054;-50
2024/02/15 03:44:49;;;;;;;3.95;1.50;;;;;;;12.49;85.79;99479.22;4981862;28;20046;-49
2024/02/15 03:47:16;;;;;;;3.88;2.00;;;;;;;12.49;85.33;99485.25;4979272;28;20439;-48
2024/02/15 03:49:43;;;;;;;4.00;2.42;;;;;;;12.52;84.96;99479.13;4984432;28;20081;-48
2024/02/15 03:52:10;;;;;;;3.83;2.22;;;;;;;12.51;85.34;99478.31;4984875;28;20510;-47
2024/02/15 03:54:37;;;;;;;3.03;1.30;;;;;;;12.49;85.48;99474.88;4980716;28;20053;-47
2024/02/15 03:57:06;;;;;;;3.88;1.83;;;;;;;12.51;85.90;99473.09;4978804;28;20058;-51
2024/02/15 03:59:34;;;;;;;2.47;1.75;;;;;;;12.46;86.28;99464.53;4982336;28;20050;-48
2024/02/15 04:02:03;;;;;;;4.85;2.30;;;;;;;12.46;85.21;99464.53;4987378;28;20042;-48
2024/02/15 04:04:30;;;;;;;2.33;1.88;;;;;;;12.44;85.22;99462.00;4986942;28;20133;-48
2024/02/15 04:06:58;;;;;;;2.92;1.23;;;;;;;12.44;85.71;99450.72;4990572;28;20070;-49
2024/02/15 04:09:25;;;;;;;3.03;1.60;;;;;;;12.42;86.93;99457.69;4992177;28;20061;-49
2024/02/15 04:11:52;;;;;;;3.35;1.63;;;;;;;12.40;86.65;99464.66;4976236;28;20067;-47
2024/02/15 04:14:20;;;;;;;4.20;2.10;;;;;;;12.43;86.72;99459.41;4984718;28;20050;-47
2024/02/15 04:16:47;;;;;;;4.15;1.60;;;;;;;12.39;86.39;99452.59;4986886;28;20152;-45
2024/02/15 04:19:15;;;;;;;3.25;1.55;;;;;;;12.39;86.45;99452.59;4985581;28;20443;-48
2024/02/15 04:21:44;;;;;;;3.70;1.95;;;;;;;12.41;85.95;99445.59;4988082;28;20056;-50
2024/02/15 04:24:12;;;;;;;3.45;2.25;;;;;;;12.43;87.17;99455.06;4983699;28;20061;-50
2024/02/15 04:26:39;;;;;;;2.55;1.75;;;;;;;12.44;86.72;99443.81;4982866;28;20050;-50
2024/02/15 04:29:08;;;;;;;3.53;2.25;;;;;;;12.43;86.48;99449.88;4985559;28;20137;-49
2024/02/15 04:31:39;;;;;;;;;;;;;;;12.32;86.81;99454.41;4983156;28;20050;-49
2024/02/15 04:34:06;;;;;;;2.92;1.55;;;;;;;12.34;87.08;99448.31;4984057;28;20643;-49
2024/02/15 04:36:34;;;;;;;3.75;2.28;;;;;;;12.42;86.78;99440.38;4983486;28;20570;-48
2024/02/15 04:39:04;;;;;;;2.72;1.15;;;;;;;12.47;87.20;99441.13;4990687;28;20050;-51
2024/02/15 04:41:31;;;;;;;3.40;1.40;;;;;;;12.44;86.37;99450.72;4982631;28;20464;-49
2024/02/15 04:43:58;;;;;;;2.08;1.25;;;;;;;12.47;86.37;99461.06;4984687;28;21701;-49
2024/02/15 04:46:25;;;;;;;5.15;2.35;;;;;;;12.49;87.11;99456.69;4980266;28;20058;-48
2024/02/15 04:48:51;;;;;;;4.00;1.75;;;;;;;12.45;86.92;99453.31;4985046;28;20053;-49
2024/02/15 04:51:21;;;;;;;2.92;1.30;;;;;;;12.51;87.04;99457.53;4983216;28;20128;-45
2024/02/15 04:53:49;;;;;;;2.95;1.58;;;;;;;12.49;87.41;99464.47;4985558;28;20496;-47
2024/02/15 04:56:16;;;;;;;5.38;1.98;;;;;;;12.51;86.92;99457.53;4980313;28;20046;-46
2024/02/15 04:58:47;;;;;;;2.55;1.55;;;;;;;12.47;87.48;99450.69;4980607;28;20046;-53
2024/02/15 05:01:16;;;;;;;3.70;2.67;;;;;;;12.49;87.28;99459.28;4983565;28;20112;-47
2024/02/15 05:03:43;;;;;;;4.88;2.28;;;;;;;12.53;87.22;99449.69;4978581;28;20054;-46
2024/02/15 05:06:12;;;;;;;4.55;2.08;;;;;;;12.52;87.72;99451.44;4987089;28;20411;-51
2024/02/15 05:08:43;;;;;;;2.83;1.58;;;;;;;12.39;87.68;99448.22;4981773;28;20050;-52
2024/02/15 05:11:15;;;;;;;5.80;2.78;;;;;;;12.52;87.80;99441.03;4986401;28;20526;-51
2024/02/15 05:13:41;;;;;;;4.57;2.35;;;;;;;12.54;87.72;99425.44;4979394;28;20050;-50
2024/02/15 05:16:08;;;;;;;3.95;2.00;;;;;;;12.51;88.04;99426.34;4978669;28;20050;-47
2024/02/15 05:18:35;;;;;;;6.32;2.58;;;;;;;12.53;87.18;99419.38;4985209;28;20092;-51
2024/02/15 05:21:04;;;;;;;5.00;2.28;;;;;;;12.56;86.73;99419.31;4985114;28;20632;-46
2024/02/15 05:23:31;;;;;;;3.95;2.40;;;;;;;12.57;87.05;99415.81;4977134;28;20057;-52
2024/02/15 05:25:58;;;;;;;3.65;2.00;;;;;;;12.57;87.75;99405.44;4980837;28;20629;-50
2024/02/15 05:28:26;;;;;;;4.75;2.05;;;;;;;12.53;86.83;99418.53;4983641;28;20057;-45
2024/02/15 05:33:47;;;;;;;4.95;3.75;;;;;;;12.49;87.49;99412.53;5059069;28;20384;-45
2024/02/15 05:36:16;;;;;;;4.20;3.13;;;;;;;12.54;87.77;99413.31;5008374;28;20100;-54
2024/02/15 05:38:45;;;;;;;4.68;3.80;;;;;;;12.53;87.53;99403.78;5009761;28;20049;-54
2024/02/15 05:41:12;;;;;;;5.05;3.67;;;;;;;12.58;88.06;99406.28;4999326;28;20073;-49
2024/02/15 05:43:41;;;;;;;5.80;4.07;;;;;;;12.56;88.79;99398.53;4999538;28;20130;-51
2024/02/15 05:46:10;;;;;;;6.43;4.25;;;;;;;12.60;87.91;99402.78;5004879;28;20050;-49
2024/02/15 05:48:37;;;;;;;7.50;5.25;;;;;;;12.66;87.81;99398.34;4999100;28;20050;-48
2024/02/15 05:51:05;;;;;;;6.47;4.55;;;;;;;12.64;87.28;99394.91;5009745;28;20132;-47
2024/02/15 05:53:35;;;;;;;5.40;3.92;;;;;;;12.67;88.45;99398.28;5010307;28;20084;-47
2024/02/15 05:56:04;;;;;;;5.75;4.05;;;;;;;12.67;88.66;99410.44;5011451;28;20113;-51
2024/02/15 05:58:32;;;;;;;4.03;3.33;;;;;;;12.64;88.14;99405.31;5014532;28;20054;-51
2024/02/15 06:01:05;;;;;;;4.43;3.92;;;;;;;12.65;88.04;99409.59;5007133;28;20058;-47
2024/02/15 06:03:33;;;;;;;5.15;4.13;;;;;;;12.62;89.20;99405.34;5008201;28;20041;-51
2024/02/15 06:06:02;;;;;;;5.18;3.55;;;;;;;12.60;89.14;99402.78;4996410;28;20049;-51
2024/02/15 06:08:30;;;;;;;7.50;3.95;;;;;;;12.63;88.91;99399.25;5001696;28;20054;-45
2024/02/15 06:10:57;;;;;;;5.15;3.88;;;;;;;12.65;88.33;99402.69;5005768;28;20140;-47
2024/02/15 06:13:24;;;;;;;5.70;4.57;;;;;;;12.69;88.01;99398.25;5007274;28;20050;-46
2024/02/15 06:15:54;;;;;;;5.80;4.53;;;;;;;12.71;88.99;99401.69;4998545;28;20054;-49
2024/02/15 06:18:24;;;;;;;5.95;4.22;;;;;;;12.69;89.01;99406.06;5004493;28;20423;-47
2024/02/15 06:20:51;;;;;;;7.63;4.38;;;;;;;12.72;88.47;99399.06;4999552;28;20053;-52
2024/02/15 06:23:21;;;;;;;6.22;4.18;;;;;;;12.71;88.95;99399.09;5003728;28;20066;-45
2024/02/15 06:25:47;;;;;;;7.10;4.63;;;;;;;12.77;87.93;99406.72;4995789;28;20125;-48
2024/02/15 06:39:38;;;;;;;5.35;4.50;;;;;;;12.80;87.82;99396.28;4980490;28;20050;-47
2024/02/15 06:42:06;;;;;;;5.07;3.72;;;;;;;12.80;88.53;99406.66;4989716;28;20046;-48
2024/02/15 06:44:33;;;;;;;5.03;4.07;;;;;;;12.84;88.32;99410.06;4996415;28;20051;-50
2024/02/15 06:47:00;;;;;;;5.47;2.15;;;;;;;12.89;88.43;99405.63;4986464;28;20556;-48
2024/02/15 06:49:27;;;;;;;8.77;4.47;;;;;;;12.93;88.84;99406.38;4994379;28;20049;-49
2024/02/15 06:51:54;;;;;;;5.68;4.05;;;;;;;12.95;88.46;99409.81;4990552;28;20068;-48
2024/02/15 06:54:22;;;;;;;7.00;4.60;;;;;;;12.98;88.01;99407.16;4981449;28;20081;-49
2024/02/15 06:56:51;;;;;;;5.43;3.92;;;;;;;12.96;89.21;99411.53;4991044;28;20057;-48
2024/02/15 06:59:22;;;;;;;5.82;4.00;;;;;;;13.03;87.55;99413.09;4995151;28;20061;-46
2024/02/15 07:01:49;;;;;;;;;;;;;;;12.90;88.55;99404.72;4988813;28;20050;-48
2024/02/15 07:04:16;;;;;;;7.20;1.90;;;;;;;13.03;88.44;99412.25;4989760;28;20399;-48
2024/02/15 07:06:47;;;;;;;3.85;3.13;;;;;;;13.03;88.63;99397.50;4989412;28;20057;-50
2024/02/15 07:09:15;;;;;;;4.25;2.33;;;;;;;13.07;87.84;99399.13;4991514;28;20425;-46
2024/02/15 07:11:43;;;;;;;4.85;3.45;;;;;;;13.07;87.91;99409.53;4992419;28;20043;-51
2024/02/15 07:14:13;;;;;;;4.35;3.33;;;;;;;13.11;88.04;99416.38;4999476;28;20034;-49
2024/02/15 07:16:40;;;;;;;8.70;3.88;;;;;;;13.12;88.31;99406.84;4990861;28;20537;-47
2024/02/15 07:19:09;;;;;;;5.55;3.53;;;;;;;13.17;87.58;99409.34;4996755;28;20512;-49
2024/02/15 07:21:38;;;;;;;5.32;3.60;;;;;;;13.17;87.62;99409.34;4999481;28;20058;-50
2024/02/15 07:24:05;;;;;;;4.63;3.42;;;;;;;13.20;87.83;99411.84;4990833;28;20416;-49
2024/02/15 07:26:34;;;;;;;6.32;4.20;;;;;;;13.19;88.05;99412.72;4999504;28;20053;-47
2024/02/15 07:29:05;;;;;;;5.95;3.78;;;;;;;13.22;88.06;99412.66;4981071;28;20586;-49
2024/02/15 07:31:34;;;;;;;4.95;3.45;;;;;;;13.26;87.89;99408.22;4985445;28;20043;-47
2024/02/15 07:34:01;;;;;;;6.30;2.05;;;;;;;13.28;87.68;99412.53;4987356;28;20450;-52
2024/02/15 07:36:28;;;;;;;8.82;4.13;;;;;;;13.28;87.50;99409.06;4983414;28;20641;-47
2024/02/15 07:39:00;;;;;;;5.65;4.05;;;;;;;13.31;87.14;99415.03;4988453;28;20836;-48
2024/02/15 07:41:31;;;;;;;6.60;2.40;;;;;;;13.34;86.95;99406.31;4984006;28;20456;-49
2024/02/15 07:44:00;;;;;;;4.50;3.85;;;;;;;13.35;86.90;99403.66;4983485;28;20220;-50
2024/02/15 07:46:28;;;;;;;7.90;3.13;;;;;;;13.37;87.57;99407.09;4979175;28;20058;-46
2024/02/15 07:48:56;;;;;;;5.10;3.30;;;;;;;13.40;87.43;99410.53;4978633;28;20157;-52
2024/02/15 07:51:25;;;;;;;6.65;3.92;;;;;;;13.41;87.67;99413.06;4977405;28;20055;-50
2024/02/15 07:53:52;;;;;;;5.38;3.05;;;;;;;13.41;87.02;99410.47;4979659;28;20061;-49
2024/02/15 07:56:19;;;;;;;4.75;3.78;;;;;;;13.42;86.79;99409.59;4977841;28;20076;-48
2024/02/15 07:58:51;;;;;;;7.60;4.07;;;;;;;13.45;86.82;99403.44;4982167;28;20057;-50
2024/02/15 08:01:21;;;;;;;4.03;3.30;;;;;;;13.45;87.47;99404.28;4979777;28;20269;-48
2024/02/15 08:03:48;;;;;;;6.43;3.47;;;;;;;13.46;86.89;99402.53;5001696;28;20046;-50
2024/02/15 08:06:16;;;;;;;6.40;3.47;;;;;;;13.47;86.78;99406.84;4979748;28;20141;-49
2024/02/15 08:08:46;;;;;;;6.97;3.55;;;;;;;13.49;86.70;99405.09;4998824;28;20046;-50
2024/02/15 08:11:15;;;;;;;3.90;3.38;;;;;;;13.47;87.24;99406.84;4975194;28;20104;-50
2024/02/15 08:13:45;;;;;;;5.40;3.05;;;;;;;13.45;86.45;99404.28;4981528;28;20046;-48
2024/02/15 08:16:15;;;;;;;4.13;2.80;;;;;;;13.44;86.77;99396.53;4981430;28;20054;-50
2024/02/15 08:18:45;;;;;;;;;;;;;;;13.35;87.07;99393.25;4980403;28;20774;-52
2024/02/15 08:21:14;;;;;;;8.18;3.10;;;;;;;13.43;87.53;99395.69;4983688;28;19929;-48
2024/02/15 08:23:41;;;;;;;4.45;2.83;;;;;;;13.49;87.26;99394.69;4981837;28;20504;-48
2024/02/15 08:26:10;;;;;;;5.15;2.78;;;;;;;13.52;86.83;99399.84;4991888;28;20046;-49
2024/02/15 08:28:39;;;;;;;6.03;3.33;;;;;;;13.51;86.47;99407.69;4984313;28;20153;-52
2024/02/15 08:31:07;;;;;;;6.35;3.20;;;;;;;13.60;86.38;99405.69;4978244;28;20049;-49
2024/02/15 08:33:34;;;;;;;6.65;3.20;;;;;;;13.61;86.87;99409.13;4991037;28;20042;-48
2024/02/15 08:36:02;;;;;;;2.88;1.05;;;;;;;13.73;87.10;99402.78;4981816;28;20578;-51
2024/02/15 08:38:29;;;;;;;9.57;4.40;;;;;;;13.73;86.47;99407.97;4978802;28;20456;-53
2024/02/15 08:40:55;;;;;;;3.67;3.22;;;;;;;13.70;86.88;99402.84;4984006;28;20411;-49
2024/02/15 08:43:23;;;;;;;2.85;2.65;;;;;;;13.74;86.62;99409.66;4981630;28;20527;-45
2024/02/15 08:45:50;;;;;;;5.82;3.60;;;;;;;13.76;86.51;99402.69;4991958;28;20053;-47
2024/02/15 08:48:17;;;;;;;3.95;2.65;;;;;;;13.79;86.55;99397.41;4984599;28;20411;-51
2024/02/15 08:50:45;;;;;;;7.85;3.15;;;;;;;13.84;86.44;99400.72;4977325;28;20050;-50
2024/02/15 08:53:14;;;;;;;11.93;3.58;;;;;;;13.88;86.38;99404.09;4982059;28;20056;-48
2024/02/15 08:55:43;;;;;;;4.97;3.67;;;;;;;13.91;86.92;99411.00;4983957;28;20061;-47
2024/02/15 08:58:10;;;;;;;6.93;3.65;;;;;;;13.93;86.34;99406.59;4985028;28;20050;-51
2024/02/15 09:00:41;;;;;;;4.18;3.78;;;;;;;13.96;85.54;99389.16;4984311;28;20523;-48
2024/02/15 09:03:07;;;;;;;5.68;3.50;;;;;;;13.97;86.29;99395.19;4988018;28;20077;-49
2024/02/15 09:05:35;;;;;;;4.72;3.38;;;;;;;14.03;85.97;99395.03;4981225;28;20074;-48
2024/02/15 09:08:04;;;;;;;3.80;3.05;;;;;;;14.01;86.04;99386.41;4987637;28;20054;-49
2024/02/15 09:10:32;;;;;;;5.13;3.08;;;;;;;14.07;86.09;99382.78;4982912;28;20098;-51
2024/02/15 09:12:59;;;;;;;4.68;2.97;;;;;;;14.03;85.47;99379.41;4980447;28;20048;-51
2024/02/15 09:15:26;;;;;;;10.02;3.15;;;;;;;14.02;85.45;99388.13;4988066;28;20050;-48
2024/02/15 09:17:54;;;;;;;5.20;3.60;;;;;;;13.97;85.76;99385.63;4991133;28;20074;-49
2024/02/15 09:20:21;;;;;;;4.32;3.55;;;;;;;14.05;85.26;99387.19;4990069;28;20112;-51
2024/02/15 09:22:51;;;;;;;3.97;3.35;;;;;;;14.09;85.35;99387.03;4990562;28;20055;-49
2024/02/15 09:25:19;;;;;;;2.88;2.60;;;;;;;14.10;85.58;99386.16;4988617;28;20056;-49
2024/02/15 09:27:46;;;;;;;4.07;2.72;;;;;;;14.11;84.78;99381.78;4988129;28;20055;-49
2024/02/15 09:30:13;;;;;;;3.97;3.00;;;;;;;14.14;85.76;99377.38;4980381;28;20074;-47
2024/02/15 09:32:41;;;;;;;4.15;2.65;;;;;;;14.16;85.59;99389.47;4982225;28;20776;-46
2024/02/15 09:35:12;;;;;;;5.95;3.13;;;;;;;14.22;85.44;99373.69;4984377;28;20125;-46
2024/02/15 09:37:48;;;;;;;9.85;3.95;;;;;;;14.22;84.74;99374.53;4974366;28;20060;-47
2024/02/15 09:40:19;;;;;;;6.22;4.00;;;;;;;14.26;85.23;99380.53;4976139;28;20129;-48
2024/02/15 09:42:47;;;;;;;7.70;3.60;;;;;;;14.26;84.69;99380.53;4972461;28;20078;-52
2024/02/15 09:45:15;;;;;;;6.45;4.70;;;;;;;14.25;84.66;99377.03;4968481;28;20078;-49
2024/02/15 09:47:42;;;;;;;6.43;4.22;;;;;;;14.32;84.29;99380.31;4979939;28;20092;-52
2024/02/15 09:50:14;;;;;;;4.10;2.72;;;;;;;14.29;84.62;99382.19;4971712;28;20052;-48
2024/02/15 09:52:50;;;;;;;4.45;3.97;;;;;;;14.26;83.98;99380.53;4980659;28;20081;-51
2024/02/15 09:55:18;;;;;;;5.70;3.53;;;;;;;14.35;84.64;99369.81;4980513;28;20149;-47
2024/02/15 09:57:46;;;;;;;6.90;4.57;;;;;;;14.39;83.83;99371.44;4984436;28;20070;-53
2024/02/15 10:00:15;;;;;;;4.57;4.18;;;;;;;14.42;84.49;99374.84;4967700;28;20073;-50
2024/02/15 10:02:47;;;;;;;8.07;3.58;;;;;;;14.43;83.93;99376.56;4990214;28;20053;-50
2024/02/15 10:05:14;;;;;;;5.78;1.73;;;;;;;14.47;84.16;99373.81;4979770;28;20481;-49
2024/02/15 10:07:44;;;;;;;9.52;3.65;;;;;;;14.55;84.06;99370.13;4990589;28;20076;-51
2024/02/15 10:12:55;;;;;;;5.70;1.83;;;;;;;14.85;84.13;99378.78;5057760;28;20588;-48
2024/02/15 10:15:40;;;;;;;6.03;2.05;;;;;;;14.98;82.52;99373.19;5012125;28;20767;-53
2024/02/15 10:18:10;;;;;;;6.95;2.45;;;;;;;15.01;83.57;99362.66;5011467;28;20077;-50
2024/02/15 10:20:39;;;;;;;6.50;2.75;;;;;;;14.99;82.36;99362.72;5012304;28;20053;-49
2024/02/15 10:25:46;;;;;;;10.40;3.08;;;;;;;15.10;81.93;99361.50;5074008;27;20402;-51
2024/02/15 10:28:19;;;;;;;6.20;2.35;;;;;;;15.07;81.65;99362.47;5046795;28;20052;-52
2024/02/15 10:30:48;;;;;;;6.38;3.38;;;;;;;15.02;81.32;99352.19;5063812;28;20052;-49
2024/02/15 10:33:31;;;;;;;6.25;2.20;;;;;;;14.94;80.78;99350.72;5052738;28;20044;-48
2024/02/15 10:36:07;;;;;;;;;;;;;;;14.77;80.42;99344.28;5059681;28;20102;-47
2024/02/15 10:38:35;;;;;;;5.38;1.98;;;;;;;14.80;79.99;99333.78;5058165;28;19925;-47
2024/02/15 10:41:05;;;;;;;6.18;2.42;;;;;;;14.85;80.04;99337.06;5056620;28;20056;-48
2024/02/15 10:43:34;;;;;;;6.90;2.35;;;;;;;14.88;80.20;99339.59;5060692;28;20131;-52
2024/02/15 10:46:01;;;;;;;8.15;2.58;;;;;;;14.83;79.94;99338.88;5061852;28;20575;-46
2024/02/15 10:48:28;;;;;;;6.85;2.47;;;;;;;14.85;79.85;99342.28;5057940;28;20166;-48
2024/02/15 10:51:00;;;;;;;8.00;2.10;;;;;;;14.83;79.73;99346.69;5059959;28;20099;-49
2024/02/15 10:53:31;;;;;;;4.43;1.63;;;;;;;14.80;79.03;99344.22;5052710;28;20476;-50
2024/02/15 10:58:48;;;;;;;1.95;1.27;;;;;;;14.75;79.33;99348.66;5103266;27;20391;-48
2024/02/15 11:01:18;;;;;;;8.82;1.75;;;;;;;14.80;78.63;99333.78;5043275;28;20048;-50
2024/02/15 11:06:27;;;;;;;7.85;1.75;;;;;;;14.78;77.69;99330.34;5026701;27;20417;-51
2024/02/15 11:08:55;;;;;;;3.72;1.88;;;;;;;14.86;78.12;99323.13;5022614;28;20053;-51
2024/02/15 11:11:23;;;;;;;5.70;1.90;;;;;;;14.89;77.73;99315.22;5022448;28;20060;-48
2024/02/15 11:14:28;;;;;;;4.65;1.83;;;;;;;14.86;77.16;99307.50;5023284;28;20521;-50
2024/02/15 11:16:57;;;;;;;5.70;1.85;;;;;;;14.96;77.35;99309.81;5020665;28;20135;-50
2024/02/15 11:19:45;;;;;;;3.78;1.75;;;;;;;14.90;76.13;99303.03;5022805;28;20049;-50
2024/02/15 11:22:15;;;;;;;1.83;1.35;;;;;;;14.98;76.98;99298.44;5019393;28;20053;-50
2024/02/15 11:24:49;;;;;;;2.47;1.58;;;;;;;15.00;76.21;99303.59;5022831;28;20056;-50
2024/02/15 11:27:27;;;;;;;5.00;1.55;;;;;;;15.04;76.26;99279.13;5020910;28;20065;-51
2024/02/15 11:30:02;;;;;;;3.92;1.92;;;;;;;15.07;75.47;99276.41;5021511;28;20049;-49
2024/02/15 11:35:30;;;;;;;2.92;2.70;;;;;;;15.05;74.47;99257.34;5045433;28;21129;-49
2024/02/15 11:37:59;;;;;;;;;;;;;;;15.03;74.43;99246.97;5008915;28;20049;-46
2024/02/15 11:40:49;;;;;;;6.28;2.25;;;;;;;15.06;74.11;99225.13;5002319;28;19926;-50
2024/02/15 11:46:20;;;;;;;3.92;1.00;;;;;;;15.07;73.35;99220.78;5016204;27;20420;-47
2024/02/15 11:48:47;;;;;;;2.80;1.20;;;;;;;15.08;73.35;99218.13;5004979;28;20137;-45
2024/02/15 11:51:36;;;;;;;3.60;1.30;;;;;;;14.99;72.01;99228.84;4999153;28;20049;-46
2024/02/15 11:54:11;;;;;;;2.17;0.60;;;;;;;15.15;72.93;99227.44;5000749;28;20050;-47
2024/02/15 11:57:13;;;;;;;1.63;0.90;;;;;;;15.20;72.01;99234.25;4998770;28;20064;-49
2024/02/15 12:19:24;;;;;;;2.00;0.85;;;;;;;15.65;69.09;99207.41;4991147;28;20050;-48
2024/02/15 12:21:52;;;;;;;2.03;0.70;;;;;;;15.70;69.93;99202.00;4998728;28;20120;-53
2024/02/15 12:24:21;;;;;;;2.08;1.60;;;;;;;15.83;70.19;99202.38;4997537;28;20062;-51
2024/02/15 12:26:48;;;;;;;4.25;0.82;;;;;;;15.76;69.26;99195.69;5001962;28;20070;-49
2024/02/15 12:29:18;;;;;;;1.48;0.80;;;;;;;15.79;69.70;99195.59;5002278;28;20050;-55
2024/02/15 12:31:46;;;;;;;2.75;2.53;;;;;;;15.91;69.50;99195.09;5000321;28;20452;-50
2024/02/15 12:34:16;;;;;;;1.42;1.27;;;;;;;15.87;68.37;99190.09;5003275;28;20061;-51